sensor_id;sensor_type;location;lat;lon;timestamp;P1;durP1;ratioP1;P2;durP2;ratioP2
5297;SDS011;14738;42.668;23.250;2023-04-19T00:01:12;1.40;;;1.40;;
5297;SDS011;14738;42.668;23.250;2023-04-19T00:03:38;1.70;;;1.60;;
5297;SDS011;14738;42.668;23.250;2023-04-19T00:06:03;1.40;;;1.40;;
5297;SDS011;14738;42.668;23.250;2023-04-19T00:08:28;1.80;;;1.50;;
5297;SDS011;14738;42.668;23.250;2023-04-19T00:10:54;1.47;;;1.47;;
5297;SDS011;14738;42.668;23.250;2023-04-19T00:13:19;2.00;;;1.90;;
5297;SDS011;14738;42.668;23.250;2023-04-19T00:15:45;1.70;;;1.60;;
5297;SDS011;14738;42.668;23.250;2023-04-19T00:18:11;2.00;;;1.90;;
5297;SDS011;14738;42.668;23.250;2023-04-19T00:20:37;1.80;;;1.80;;
5297;SDS011;14738;42.668;23.250;2023-04-19T00:23:03;2.27;;;2.13;;
5297;SDS011;14738;42.668;23.250;2023-04-19T00:25:28;2.63;;;2.43;;
5297;SDS011;14738;42.668;23.250;2023-04-19T00:27:55;2.30;;;2.20;;
5297;SDS011;14738;42.668;23.250;2023-04-19T00:30:21;2.87;;;2.67;;
5297;SDS011;14738;42.668;23.250;2023-04-19T00:32:46;2.37;;;2.27;;
5297;SDS011;14738;42.668;23.250;2023-04-19T00:35:12;2.57;;;2.37;;
5297;SDS011;14738;42.668;23.250;2023-04-19T00:37:38;2.20;;;2.00;;
5297;SDS011;14738;42.668;23.250;2023-04-19T00:40:03;1.60;;;1.50;;
5297;SDS011;14738;42.668;23.250;2023-04-19T00:42:30;2.30;;;2.10;;
5297;SDS011;14738;42.668;23.250;2023-04-19T00:44:55;1.87;;;1.77;;
5297;SDS011;14738;42.668;23.250;2023-04-19T00:47:20;1.80;;;1.73;;
5297;SDS011;14738;42.668;23.250;2023-04-19T00:49:46;1.93;;;1.83;;
5297;SDS011;14738;42.668;23.250;2023-04-19T00:52:11;1.87;;;1.77;;
5297;SDS011;14738;42.668;23.250;2023-04-19T00:54:37;1.60;;;1.60;;
5297;SDS011;14738;42.668;23.250;2023-04-19T00:57:05;2.10;;;2.00;;
5297;SDS011;14738;42.668;23.250;2023-04-19T00:59:30;2.20;;;2.10;;
5297;SDS011;14738;42.668;23.250;2023-04-19T01:01:58;2.43;;;2.23;;
5297;SDS011;14738;42.668;23.250;2023-04-19T01:04:24;1.83;;;1.73;;
5297;SDS011;14738;42.668;23.250;2023-04-19T01:06:49;1.53;;;1.50;;
5297;SDS011;14738;42.668;23.250;2023-04-19T01:09:15;2.10;;;2.00;;
5297;SDS011;14738;42.668;23.250;2023-04-19T01:11:40;2.10;;;2.00;;
5297;SDS011;14738;42.668;23.250;2023-04-19T01:14:05;2.10;;;2.00;;
5297;SDS011;14738;42.668;23.250;2023-04-19T01:16:31;1.90;;;1.80;;
5297;SDS011;14738;42.668;23.250;2023-04-19T01:18:57;2.67;;;2.47;;
5297;SDS011;14738;42.668;23.250;2023-04-19T01:21:22;2.40;;;2.20;;
5297;SDS011;14738;42.668;23.250;2023-04-19T01:23:48;2.37;;;2.27;;
5297;SDS011;14738;42.668;23.250;2023-04-19T01:26:13;2.50;;;2.40;;
5297;SDS011;14738;42.668;23.250;2023-04-19T01:28:40;2.30;;;2.20;;
5297;SDS011;14738;42.668;23.250;2023-04-19T01:31:05;3.30;;;2.57;;
5297;SDS011;14738;42.668;23.250;2023-04-19T01:33:31;2.33;;;2.20;;
5297;SDS011;14738;42.668;23.250;2023-04-19T01:35:56;2.23;;;2.13;;
5297;SDS011;14738;42.668;23.250;2023-04-19T01:38:21;2.40;;;2.30;;
5297;SDS011;14738;42.668;23.250;2023-04-19T01:40:47;2.67;;;2.50;;
5297;SDS011;14738;42.668;23.250;2023-04-19T01:43:13;2.27;;;2.17;;
5297;SDS011;14738;42.668;23.250;2023-04-19T01:45:40;2.10;;;2.00;;
5297;SDS011;14738;42.668;23.250;2023-04-19T01:48:06;2.50;;;2.40;;
5297;SDS011;14738;42.668;23.250;2023-04-19T01:50:31;3.00;;;2.80;;
5297;SDS011;14738;42.668;23.250;2023-04-19T01:52:57;2.57;;;2.47;;
5297;SDS011;14738;42.668;23.250;2023-04-19T01:55:22;2.97;;;2.77;;
5297;SDS011;14738;42.668;23.250;2023-04-19T01:57:48;1.97;;;1.90;;
5297;SDS011;14738;42.668;23.250;2023-04-19T02:00:14;3.53;;;2.20;;
5297;SDS011;14738;42.668;23.250;2023-04-19T02:02:39;2.20;;;2.10;;
5297;SDS011;14738;42.668;23.250;2023-04-19T02:05:06;2.50;;;2.40;;
5297;SDS011;14738;42.668;23.250;2023-04-19T02:07:32;3.17;;;3.07;;
5297;SDS011;14738;42.668;23.250;2023-04-19T02:09:57;2.90;;;2.77;;
5297;SDS011;14738;42.668;23.250;2023-04-19T02:12:26;3.37;;;2.67;;
5297;SDS011;14738;42.668;23.250;2023-04-19T02:14:53;3.07;;;2.90;;
5297;SDS011;14738;42.668;23.250;2023-04-19T02:17:21;3.70;;;3.40;;
5297;SDS011;14738;42.668;23.250;2023-04-19T02:19:47;3.83;;;2.83;;
5297;SDS011;14738;42.668;23.250;2023-04-19T02:22:13;3.90;;;3.27;;
5297;SDS011;14738;42.668;23.250;2023-04-19T02:24:38;3.63;;;3.43;;
5297;SDS011;14738;42.668;23.250;2023-04-19T02:27:03;3.20;;;2.73;;
5297;SDS011;14738;42.668;23.250;2023-04-19T02:29:29;3.40;;;3.20;;
5297;SDS011;14738;42.668;23.250;2023-04-19T02:31:54;4.07;;;3.77;;
5297;SDS011;14738;42.668;23.250;2023-04-19T02:34:19;3.13;;;3.03;;
5297;SDS011;14738;42.668;23.250;2023-04-19T02:36:45;4.13;;;3.83;;
5297;SDS011;14738;42.668;23.250;2023-04-19T02:39:10;3.07;;;2.97;;
5297;SDS011;14738;42.668;23.250;2023-04-19T02:41:36;3.57;;;3.37;;
5297;SDS011;14738;42.668;23.250;2023-04-19T02:44:01;4.23;;;4.03;;
5297;SDS011;14738;42.668;23.250;2023-04-19T02:46:27;4.53;;;4.23;;
5297;SDS011;14738;42.668;23.250;2023-04-19T02:48:52;3.70;;;3.50;;
5297;SDS011;14738;42.668;23.250;2023-04-19T02:51:17;4.70;;;4.40;;
5297;SDS011;14738;42.668;23.250;2023-04-19T02:53:43;3.90;;;3.60;;
5297;SDS011;14738;42.668;23.250;2023-04-19T02:56:08;4.30;;;4.00;;
5297;SDS011;14738;42.668;23.250;2023-04-19T02:58:34;5.13;;;4.73;;
5297;SDS011;14738;42.668;23.250;2023-04-19T03:00:59;4.10;;;3.80;;
5297;SDS011;14738;42.668;23.250;2023-04-19T03:03:25;4.60;;;4.30;;
5297;SDS011;14738;42.668;23.250;2023-04-19T03:05:50;4.03;;;3.77;;
5297;SDS011;14738;42.668;23.250;2023-04-19T03:08:16;3.53;;;3.33;;
5297;SDS011;14738;42.668;23.250;2023-04-19T03:10:41;5.00;;;4.70;;
5297;SDS011;14738;42.668;23.250;2023-04-19T03:13:07;4.63;;;4.33;;
5297;SDS011;14738;42.668;23.250;2023-04-19T03:15:32;4.40;;;4.00;;
5297;SDS011;14738;42.668;23.250;2023-04-19T03:17:58;3.90;;;3.70;;
5297;SDS011;14738;42.668;23.250;2023-04-19T03:20:23;4.50;;;4.20;;
5297;SDS011;14738;42.668;23.250;2023-04-19T03:22:49;4.90;;;4.50;;
5297;SDS011;14738;42.668;23.250;2023-04-19T03:25:15;4.70;;;4.20;;
5297;SDS011;14738;42.668;23.250;2023-04-19T03:27:41;4.93;;;4.53;;
5297;SDS011;14738;42.668;23.250;2023-04-19T03:30:09;4.10;;;3.80;;
5297;SDS011;14738;42.668;23.250;2023-04-19T03:32:36;5.10;;;4.67;;
5297;SDS011;14738;42.668;23.250;2023-04-19T03:35:01;3.80;;;3.60;;
5297;SDS011;14738;42.668;23.250;2023-04-19T03:37:26;3.83;;;3.57;;
5297;SDS011;14738;42.668;23.250;2023-04-19T03:39:52;5.00;;;4.70;;
5297;SDS011;14738;42.668;23.250;2023-04-19T03:42:17;4.40;;;4.10;;
5297;SDS011;14738;42.668;23.250;2023-04-19T03:44:43;4.77;;;4.47;;
5297;SDS011;14738;42.668;23.250;2023-04-19T03:47:08;5.13;;;4.73;;
5297;SDS011;14738;42.668;23.250;2023-04-19T03:49:33;4.20;;;3.90;;
5297;SDS011;14738;42.668;23.250;2023-04-19T03:51:59;4.30;;;4.00;;
5297;SDS011;14738;42.668;23.250;2023-04-19T03:54:24;4.33;;;4.03;;
5297;SDS011;14738;42.668;23.250;2023-04-19T03:56:50;5.47;;;5.00;;
5297;SDS011;14738;42.668;23.250;2023-04-19T03:59:16;4.57;;;4.27;;
5297;SDS011;14738;42.668;23.250;2023-04-19T04:01:42;4.40;;;4.10;;
5297;SDS011;14738;42.668;23.250;2023-04-19T04:04:07;4.50;;;4.20;;
5297;SDS011;14738;42.668;23.250;2023-04-19T04:06:33;4.70;;;4.40;;
5297;SDS011;14738;42.668;23.250;2023-04-19T04:08:59;4.07;;;3.73;;
5297;SDS011;14738;42.668;23.250;2023-04-19T04:11:25;3.77;;;3.57;;
5297;SDS011;14738;42.668;23.250;2023-04-19T04:13:51;3.90;;;3.70;;
5297;SDS011;14738;42.668;23.250;2023-04-19T04:16:16;4.73;;;4.40;;
5297;SDS011;14738;42.668;23.250;2023-04-19T04:18:42;4.77;;;4.47;;
5297;SDS011;14738;42.668;23.250;2023-04-19T04:21:07;4.57;;;4.27;;
5297;SDS011;14738;42.668;23.250;2023-04-19T04:23:32;3.67;;;3.47;;
5297;SDS011;14738;42.668;23.250;2023-04-19T04:25:58;4.33;;;4.03;;
5297;SDS011;14738;42.668;23.250;2023-04-19T04:28:29;4.17;;;3.87;;
5297;SDS011;14738;42.668;23.250;2023-04-19T04:30:55;5.13;;;4.73;;
5297;SDS011;14738;42.668;23.250;2023-04-19T04:33:24;4.57;;;4.27;;
5297;SDS011;14738;42.668;23.250;2023-04-19T04:35:54;4.33;;;4.03;;
5297;SDS011;14738;42.668;23.250;2023-04-19T04:38:20;4.60;;;4.30;;
5297;SDS011;14738;42.668;23.250;2023-04-19T04:40:49;4.30;;;4.00;;
5297;SDS011;14738;42.668;23.250;2023-04-19T04:43:18;4.30;;;3.60;;
5297;SDS011;14738;42.668;23.250;2023-04-19T04:45:45;4.13;;;3.90;;
5297;SDS011;14738;42.668;23.250;2023-04-19T04:48:11;3.50;;;3.30;;
5297;SDS011;14738;42.668;23.250;2023-04-19T04:50:36;3.80;;;3.50;;
5297;SDS011;14738;42.668;23.250;2023-04-19T04:53:02;4.73;;;4.33;;
5297;SDS011;14738;42.668;23.250;2023-04-19T04:55:27;4.07;;;3.80;;
5297;SDS011;14738;42.668;23.250;2023-04-19T04:57:53;4.30;;;4.00;;
5297;SDS011;14738;42.668;23.250;2023-04-19T05:00:18;4.50;;;4.20;;
5297;SDS011;14738;42.668;23.250;2023-04-19T05:02:44;4.90;;;4.57;;
5297;SDS011;14738;42.668;23.250;2023-04-19T05:05:09;3.80;;;3.60;;
5297;SDS011;14738;42.668;23.250;2023-04-19T05:07:37;4.13;;;3.83;;
5297;SDS011;14738;42.668;23.250;2023-04-19T05:10:03;4.03;;;3.80;;
5297;SDS011;14738;42.668;23.250;2023-04-19T05:12:29;4.90;;;4.37;;
5297;SDS011;14738;42.668;23.250;2023-04-19T05:14:55;4.97;;;4.57;;
5297;SDS011;14738;42.668;23.250;2023-04-19T05:17:20;4.70;;;4.40;;
5297;SDS011;14738;42.668;23.250;2023-04-19T05:19:46;4.57;;;4.27;;
5297;SDS011;14738;42.668;23.250;2023-04-19T05:22:11;5.80;;;4.70;;
5297;SDS011;14738;42.668;23.250;2023-04-19T05:24:36;4.00;;;3.80;;
5297;SDS011;14738;42.668;23.250;2023-04-19T05:27:02;4.87;;;4.57;;
5297;SDS011;14738;42.668;23.250;2023-04-19T05:29:27;4.10;;;3.83;;
5297;SDS011;14738;42.668;23.250;2023-04-19T05:31:53;4.77;;;4.47;;
5297;SDS011;14738;42.668;23.250;2023-04-19T05:34:18;5.27;;;4.87;;
5297;SDS011;14738;42.668;23.250;2023-04-19T05:36:43;4.50;;;4.20;;
5297;SDS011;14738;42.668;23.250;2023-04-19T05:39:09;5.40;;;5.00;;
5297;SDS011;14738;42.668;23.250;2023-04-19T05:41:34;6.37;;;4.97;;
5297;SDS011;14738;42.668;23.250;2023-04-19T05:44:00;4.97;;;4.57;;
5297;SDS011;14738;42.668;23.250;2023-04-19T05:46:25;4.87;;;4.57;;
5297;SDS011;14738;42.668;23.250;2023-04-19T05:48:51;4.70;;;4.40;;
5297;SDS011;14738;42.668;23.250;2023-04-19T05:51:16;5.23;;;4.83;;
5297;SDS011;14738;42.668;23.250;2023-04-19T05:53:43;5.50;;;5.10;;
5297;SDS011;14738;42.668;23.250;2023-04-19T05:56:09;5.83;;;5.13;;
5297;SDS011;14738;42.668;23.250;2023-04-19T05:58:34;5.13;;;4.73;;
5297;SDS011;14738;42.668;23.250;2023-04-19T06:01:00;4.23;;;4.03;;
5297;SDS011;14738;42.668;23.250;2023-04-19T06:03:26;5.53;;;5.13;;
5297;SDS011;14738;42.668;23.250;2023-04-19T06:05:52;5.20;;;4.70;;
5297;SDS011;14738;42.668;23.250;2023-04-19T06:08:17;4.30;;;4.00;;
5297;SDS011;14738;42.668;23.250;2023-04-19T06:10:43;3.90;;;3.70;;
5297;SDS011;14738;42.668;23.250;2023-04-19T06:13:11;4.67;;;4.37;;
5297;SDS011;14738;42.668;23.250;2023-04-19T06:15:36;4.13;;;3.83;;
5297;SDS011;14738;42.668;23.250;2023-04-19T06:18:04;4.97;;;4.57;;
5297;SDS011;14738;42.668;23.250;2023-04-19T06:20:34;4.70;;;4.40;;
5297;SDS011;14738;42.668;23.250;2023-04-19T06:23:03;4.70;;;4.27;;
5297;SDS011;14738;42.668;23.250;2023-04-19T06:25:29;4.20;;;3.90;;
5297;SDS011;14738;42.668;23.250;2023-04-19T06:27:55;8.90;;;5.20;;
5297;SDS011;14738;42.668;23.250;2023-04-19T06:30:20;5.07;;;4.63;;
5297;SDS011;14738;42.668;23.250;2023-04-19T06:32:45;4.30;;;4.00;;
5297;SDS011;14738;42.668;23.250;2023-04-19T06:35:11;5.07;;;4.67;;
5297;SDS011;14738;42.668;23.250;2023-04-19T06:37:36;3.33;;;3.13;;
5297;SDS011;14738;42.668;23.250;2023-04-19T06:40:02;3.20;;;3.00;;
5297;SDS011;14738;42.668;23.250;2023-04-19T06:42:29;3.57;;;3.33;;
5297;SDS011;14738;42.668;23.250;2023-04-19T06:44:54;6.53;;;3.20;;
5297;SDS011;14738;42.668;23.250;2023-04-19T06:47:21;4.00;;;3.70;;
5297;SDS011;14738;42.668;23.250;2023-04-19T06:49:46;4.80;;;2.90;;
5297;SDS011;14738;42.668;23.250;2023-04-19T06:52:12;3.33;;;3.13;;
5297;SDS011;14738;42.668;23.250;2023-04-19T06:54:37;3.83;;;3.63;;
5297;SDS011;14738;42.668;23.250;2023-04-19T06:57:03;4.10;;;3.80;;
5297;SDS011;14738;42.668;23.250;2023-04-19T06:59:28;3.40;;;3.20;;
5297;SDS011;14738;42.668;23.250;2023-04-19T07:01:56;4.40;;;4.00;;
5297;SDS011;14738;42.668;23.250;2023-04-19T07:04:22;6.93;;;3.67;;
5297;SDS011;14738;42.668;23.250;2023-04-19T07:06:48;4.30;;;3.90;;
5297;SDS011;14738;42.668;23.250;2023-04-19T07:09:14;3.47;;;3.23;;
5297;SDS011;14738;42.668;23.250;2023-04-19T07:11:39;3.90;;;3.60;;
5297;SDS011;14738;42.668;23.250;2023-04-19T07:14:05;3.93;;;3.63;;
5297;SDS011;14738;42.668;23.250;2023-04-19T07:16:30;6.00;;;4.50;;
5297;SDS011;14738;42.668;23.250;2023-04-19T07:18:56;4.40;;;4.10;;
5297;SDS011;14738;42.668;23.250;2023-04-19T07:21:22;4.87;;;4.47;;
5297;SDS011;14738;42.668;23.250;2023-04-19T07:23:50;4.60;;;4.17;;
5297;SDS011;14738;42.668;23.250;2023-04-19T07:26:16;4.43;;;4.17;;
5297;SDS011;14738;42.668;23.250;2023-04-19T07:28:41;4.50;;;4.13;;
5297;SDS011;14738;42.668;23.250;2023-04-19T07:31:06;3.70;;;3.40;;
5297;SDS011;14738;42.668;23.250;2023-04-19T07:33:32;6.33;;;3.63;;
5297;SDS011;14738;42.668;23.250;2023-04-19T07:35:58;4.10;;;3.77;;
5297;SDS011;14738;42.668;23.250;2023-04-19T07:38:23;3.40;;;3.10;;
5297;SDS011;14738;42.668;23.250;2023-04-19T07:40:49;4.43;;;3.63;;
5297;SDS011;14738;42.668;23.250;2023-04-19T07:43:15;4.53;;;4.17;;
5297;SDS011;14738;42.668;23.250;2023-04-19T07:45:40;3.83;;;3.53;;
5297;SDS011;14738;42.668;23.250;2023-04-19T07:48:06;3.30;;;3.10;;
5297;SDS011;14738;42.668;23.250;2023-04-19T07:50:31;3.90;;;3.60;;
5297;SDS011;14738;42.668;23.250;2023-04-19T07:52:57;3.50;;;3.30;;
5297;SDS011;14738;42.668;23.250;2023-04-19T07:55:22;3.83;;;3.53;;
5297;SDS011;14738;42.668;23.250;2023-04-19T07:57:48;3.10;;;2.90;;
5297;SDS011;14738;42.668;23.250;2023-04-19T08:00:14;3.13;;;2.93;;
5297;SDS011;14738;42.668;23.250;2023-04-19T08:02:43;4.90;;;3.30;;
5297;SDS011;14738;42.668;23.250;2023-04-19T08:05:09;3.50;;;3.30;;
5297;SDS011;14738;42.668;23.250;2023-04-19T08:07:35;3.70;;;3.40;;
5297;SDS011;14738;42.668;23.250;2023-04-19T08:10:01;3.30;;;3.10;;
5297;SDS011;14738;42.668;23.250;2023-04-19T08:12:26;3.50;;;3.30;;
5297;SDS011;14738;42.668;23.250;2023-04-19T08:14:52;3.97;;;3.67;;
5297;SDS011;14738;42.668;23.250;2023-04-19T08:17:17;3.33;;;3.13;;
5297;SDS011;14738;42.668;23.250;2023-04-19T08:19:45;3.70;;;3.50;;
5297;SDS011;14738;42.668;23.250;2023-04-19T08:22:13;3.70;;;3.40;;
5297;SDS011;14738;42.668;23.250;2023-04-19T08:24:40;3.43;;;3.23;;
5297;SDS011;14738;42.668;23.250;2023-04-19T08:27:05;4.50;;;3.70;;
5297;SDS011;14738;42.668;23.250;2023-04-19T08:29:30;3.87;;;3.53;;
5297;SDS011;14738;42.668;23.250;2023-04-19T08:31:57;4.40;;;4.00;;
5297;SDS011;14738;42.668;23.250;2023-04-19T08:34:22;3.00;;;2.90;;
5297;SDS011;14738;42.668;23.250;2023-04-19T08:36:48;3.60;;;3.40;;
5297;SDS011;14738;42.668;23.250;2023-04-19T08:39:13;4.10;;;3.70;;
5297;SDS011;14738;42.668;23.250;2023-04-19T08:41:39;2.97;;;2.83;;
5297;SDS011;14738;42.668;23.250;2023-04-19T08:44:04;3.20;;;3.10;;
5297;SDS011;14738;42.668;23.250;2023-04-19T08:46:31;3.70;;;3.40;;
5297;SDS011;14738;42.668;23.250;2023-04-19T08:48:57;3.23;;;3.10;;
5297;SDS011;14738;42.668;23.250;2023-04-19T08:51:23;3.63;;;3.33;;
5297;SDS011;14738;42.668;23.250;2023-04-19T08:53:50;4.27;;;3.87;;
5297;SDS011;14738;42.668;23.250;2023-04-19T08:56:16;3.30;;;3.10;;
5297;SDS011;14738;42.668;23.250;2023-04-19T08:58:42;2.70;;;2.60;;
5297;SDS011;14738;42.668;23.250;2023-04-19T09:01:07;3.37;;;3.17;;
5297;SDS011;14738;42.668;23.250;2023-04-19T09:03:34;2.90;;;2.70;;
5297;SDS011;14738;42.668;23.250;2023-04-19T09:06:00;3.47;;;3.27;;
5297;SDS011;14738;42.668;23.250;2023-04-19T09:08:26;2.60;;;2.50;;
5297;SDS011;14738;42.668;23.250;2023-04-19T09:10:55;2.70;;;2.60;;
5297;SDS011;14738;42.668;23.250;2023-04-19T09:13:22;3.07;;;2.87;;
5297;SDS011;14738;42.668;23.250;2023-04-19T09:15:47;3.10;;;2.93;;
5297;SDS011;14738;42.668;23.250;2023-04-19T09:18:13;2.80;;;2.60;;
5297;SDS011;14738;42.668;23.250;2023-04-19T09:20:39;2.03;;;2.03;;
5297;SDS011;14738;42.668;23.250;2023-04-19T09:23:06;2.60;;;2.47;;
5297;SDS011;14738;42.668;23.250;2023-04-19T09:25:33;2.20;;;2.10;;
5297;SDS011;14738;42.668;23.250;2023-04-19T09:28:09;3.47;;;3.27;;
5297;SDS011;14738;42.668;23.250;2023-04-19T09:30:38;2.80;;;2.60;;
5297;SDS011;14738;42.668;23.250;2023-04-19T09:33:05;2.30;;;2.20;;
5297;SDS011;14738;42.668;23.250;2023-04-19T09:35:41;2.50;;;2.40;;
5297;SDS011;14738;42.668;23.250;2023-04-19T09:38:07;2.83;;;2.63;;
5297;SDS011;14738;42.668;23.250;2023-04-19T09:40:34;2.50;;;2.40;;
5297;SDS011;14738;42.668;23.250;2023-04-19T09:43:00;2.87;;;2.77;;
5297;SDS011;14738;42.668;23.250;2023-04-19T09:45:26;3.10;;;2.90;;
5297;SDS011;14738;42.668;23.250;2023-04-19T09:48:02;2.47;;;2.37;;
5297;SDS011;14738;42.668;23.250;2023-04-19T09:50:31;2.70;;;2.60;;
5297;SDS011;14738;42.668;23.250;2023-04-19T09:52:56;2.60;;;2.50;;
5297;SDS011;14738;42.668;23.250;2023-04-19T09:55:21;2.43;;;2.30;;
5297;SDS011;14738;42.668;23.250;2023-04-19T09:57:48;2.50;;;2.40;;
5297;SDS011;14738;42.668;23.250;2023-04-19T10:00:13;2.00;;;1.90;;
5297;SDS011;14738;42.668;23.250;2023-04-19T10:02:42;2.30;;;2.20;;
5297;SDS011;14738;42.668;23.250;2023-04-19T10:05:11;2.23;;;2.13;;
5297;SDS011;14738;42.668;23.250;2023-04-19T10:07:39;2.20;;;2.10;;
5297;SDS011;14738;42.668;23.250;2023-04-19T10:10:06;2.43;;;2.20;;
5297;SDS011;14738;42.668;23.250;2023-04-19T10:12:32;1.60;;;1.60;;
5297;SDS011;14738;42.668;23.250;2023-04-19T10:15:00;2.00;;;1.90;;
5297;SDS011;14738;42.668;23.250;2023-04-19T10:17:25;2.50;;;2.40;;
5297;SDS011;14738;42.668;23.250;2023-04-19T10:19:54;2.70;;;2.53;;
5297;SDS011;14738;42.668;23.250;2023-04-19T10:22:23;2.63;;;2.53;;
5297;SDS011;14738;42.668;23.250;2023-04-19T10:25:08;4.10;;;2.53;;
5297;SDS011;14738;42.668;23.250;2023-04-19T10:27:35;2.93;;;2.33;;
5297;SDS011;14738;42.668;23.250;2023-04-19T10:30:01;3.00;;;2.80;;
5297;SDS011;14738;42.668;23.250;2023-04-19T10:35:20;2.30;;;2.10;;
5297;SDS011;14738;42.668;23.250;2023-04-19T10:38:06;2.30;;;2.20;;
5297;SDS011;14738;42.668;23.250;2023-04-19T10:43:24;2.60;;;2.50;;
5297;SDS011;14738;42.668;23.250;2023-04-19T10:46:05;2.13;;;2.03;;
5297;SDS011;14738;42.668;23.250;2023-04-19T10:48:37;2.57;;;2.37;;
5297;SDS011;14738;42.668;23.250;2023-04-19T10:51:18;2.43;;;2.33;;
5297;SDS011;14738;42.668;23.250;2023-04-19T10:53:49;3.20;;;3.00;;
5297;SDS011;14738;42.668;23.250;2023-04-19T10:56:17;3.20;;;3.00;;
5297;SDS011;14738;42.668;23.250;2023-04-19T11:01:59;3.47;;;3.27;;
5297;SDS011;14738;42.668;23.250;2023-04-19T11:04:22;3.90;;;3.60;;
5297;SDS011;14738;42.668;23.250;2023-04-19T11:07:08;3.03;;;2.93;;
5297;SDS011;14738;42.668;23.250;2023-04-19T11:09:34;2.63;;;2.53;;
5297;SDS011;14738;42.668;23.250;2023-04-19T11:12:07;3.30;;;3.10;;
5297;SDS011;14738;42.668;23.250;2023-04-19T11:14:38;3.57;;;3.37;;
5297;SDS011;14738;42.668;23.250;2023-04-19T11:17:15;6.00;;;3.10;;
5297;SDS011;14738;42.668;23.250;2023-04-19T11:19:41;3.70;;;3.50;;
5297;SDS011;14738;42.668;23.250;2023-04-19T11:22:17;2.97;;;2.87;;
5297;SDS011;14738;42.668;23.250;2023-04-19T11:24:45;2.60;;;2.50;;
5297;SDS011;14738;42.668;23.250;2023-04-19T11:27:12;3.37;;;3.17;;
5297;SDS011;14738;42.668;23.250;2023-04-19T11:29:38;3.40;;;3.20;;
5297;SDS011;14738;42.668;23.250;2023-04-19T11:32:03;3.30;;;3.20;;
5297;SDS011;14738;42.668;23.250;2023-04-19T11:34:33;3.07;;;2.87;;
5297;SDS011;14738;42.668;23.250;2023-04-19T11:37:00;3.33;;;2.97;;
5297;SDS011;14738;42.668;23.250;2023-04-19T11:39:25;2.90;;;2.80;;
5297;SDS011;14738;42.668;23.250;2023-04-19T11:41:51;1.90;;;1.90;;
5297;SDS011;14738;42.668;23.250;2023-04-19T11:44:17;1.83;;;1.73;;
5297;SDS011;14738;42.668;23.250;2023-04-19T11:47:02;2.00;;;1.90;;
5297;SDS011;14738;42.668;23.250;2023-04-19T11:49:29;2.00;;;1.90;;
5297;SDS011;14738;42.668;23.250;2023-04-19T11:51:57;1.70;;;1.70;;
5297;SDS011;14738;42.668;23.250;2023-04-19T11:54:24;2.00;;;1.90;;
5297;SDS011;14738;42.668;23.250;2023-04-19T11:57:04;3.13;;;2.40;;
5297;SDS011;14738;42.668;23.250;2023-04-19T11:59:31;2.53;;;2.40;;
5297;SDS011;14738;42.668;23.250;2023-04-19T12:02:07;2.20;;;2.10;;
5297;SDS011;14738;42.668;23.250;2023-04-19T12:04:35;2.10;;;2.00;;
5297;SDS011;14738;42.668;23.250;2023-04-19T12:07:01;2.10;;;1.97;;
5297;SDS011;14738;42.668;23.250;2023-04-19T12:09:28;2.10;;;2.00;;
5297;SDS011;14738;42.668;23.250;2023-04-19T12:11:54;2.37;;;2.27;;
5297;SDS011;14738;42.668;23.250;2023-04-19T12:14:21;2.17;;;2.00;;
5297;SDS011;14738;42.668;23.250;2023-04-19T12:17:09;2.40;;;2.00;;
5297;SDS011;14738;42.668;23.250;2023-04-19T12:19:45;1.80;;;1.80;;
5297;SDS011;14738;42.668;23.250;2023-04-19T12:22:16;3.10;;;1.90;;
5297;SDS011;14738;42.668;23.250;2023-04-19T12:24:45;1.73;;;1.63;;
5297;SDS011;14738;42.668;23.250;2023-04-19T12:27:11;2.77;;;2.57;;
5297;SDS011;14738;42.668;23.250;2023-04-19T12:29:36;3.00;;;2.83;;
5297;SDS011;14738;42.668;23.250;2023-04-19T12:32:02;2.20;;;2.10;;
5297;SDS011;14738;42.668;23.250;2023-04-19T12:34:28;2.50;;;2.40;;
5297;SDS011;14738;42.668;23.250;2023-04-19T12:36:54;2.23;;;2.13;;
5297;SDS011;14738;42.668;23.250;2023-04-19T12:39:20;3.33;;;3.13;;
5297;SDS011;14738;42.668;23.250;2023-04-19T12:41:45;3.87;;;3.60;;
5297;SDS011;14738;42.668;23.250;2023-04-19T12:44:14;4.13;;;3.90;;
5297;SDS011;14738;42.668;23.250;2023-04-19T12:46:40;5.13;;;3.60;;
5297;SDS011;14738;42.668;23.250;2023-04-19T12:49:05;4.40;;;4.00;;
5297;SDS011;14738;42.668;23.250;2023-04-19T12:51:31;4.57;;;4.17;;
5297;SDS011;14738;42.668;23.250;2023-04-19T12:53:56;6.00;;;5.47;;
5297;SDS011;14738;42.668;23.250;2023-04-19T12:56:22;7.77;;;7.07;;
5297;SDS011;14738;42.668;23.250;2023-04-19T12:58:47;6.90;;;5.97;;
5297;SDS011;14738;42.668;23.250;2023-04-19T13:01:13;9.20;;;8.40;;
5297;SDS011;14738;42.668;23.250;2023-04-19T13:03:38;7.60;;;7.00;;
5297;SDS011;14738;42.668;23.250;2023-04-19T13:06:03;8.57;;;7.67;;
5297;SDS011;14738;42.668;23.250;2023-04-19T13:08:29;7.30;;;6.70;;
5297;SDS011;14738;42.668;23.250;2023-04-19T13:10:55;8.10;;;7.40;;
5297;SDS011;14738;42.668;23.250;2023-04-19T13:13:23;2.93;;;2.73;;
5297;SDS011;14738;42.668;23.250;2023-04-19T13:15:49;2.03;;;1.93;;
5297;SDS011;14738;42.668;23.250;2023-04-19T13:18:15;2.80;;;1.80;;
5297;SDS011;14738;42.668;23.250;2023-04-19T13:20:41;1.80;;;1.70;;
5297;SDS011;14738;42.668;23.250;2023-04-19T13:23:06;2.83;;;1.80;;
5297;SDS011;14738;42.668;23.250;2023-04-19T13:25:32;2.13;;;1.90;;
5297;SDS011;14738;42.668;23.250;2023-04-19T13:27:57;1.70;;;1.60;;
5297;SDS011;14738;42.668;23.250;2023-04-19T13:30:22;3.80;;;2.10;;
5297;SDS011;14738;42.668;23.250;2023-04-19T13:32:48;1.90;;;1.80;;
5297;SDS011;14738;42.668;23.250;2023-04-19T13:35:13;2.80;;;2.60;;
5297;SDS011;14738;42.668;23.250;2023-04-19T13:37:39;2.53;;;2.33;;
5297;SDS011;14738;42.668;23.250;2023-04-19T13:40:06;4.17;;;2.90;;
5297;SDS011;14738;42.668;23.250;2023-04-19T13:42:32;3.13;;;2.00;;
5297;SDS011;14738;42.668;23.250;2023-04-19T13:44:57;3.50;;;2.80;;
5297;SDS011;14738;42.668;23.250;2023-04-19T13:47:23;2.13;;;2.03;;
5297;SDS011;14738;42.668;23.250;2023-04-19T13:49:48;2.50;;;2.33;;
5297;SDS011;14738;42.668;23.250;2023-04-19T13:52:16;3.30;;;3.10;;
5297;SDS011;14738;42.668;23.250;2023-04-19T13:54:42;3.57;;;3.27;;
5297;SDS011;14738;42.668;23.250;2023-04-19T13:57:08;6.53;;;3.10;;
5297;SDS011;14738;42.668;23.250;2023-04-19T13:59:33;4.30;;;3.47;;
5297;SDS011;14738;42.668;23.250;2023-04-19T14:01:58;4.40;;;4.00;;
5297;SDS011;14738;42.668;23.250;2023-04-19T14:04:24;4.13;;;3.77;;
5297;SDS011;14738;42.668;23.250;2023-04-19T14:06:50;4.30;;;4.00;;
5297;SDS011;14738;42.668;23.250;2023-04-19T14:09:15;4.17;;;3.50;;
5297;SDS011;14738;42.668;23.250;2023-04-19T14:11:41;4.53;;;4.10;;
5297;SDS011;14738;42.668;23.250;2023-04-19T14:14:06;4.33;;;3.93;;
5297;SDS011;14738;42.668;23.250;2023-04-19T14:16:32;4.80;;;4.40;;
5297;SDS011;14738;42.668;23.250;2023-04-19T14:18:57;4.47;;;4.10;;
5297;SDS011;14738;42.668;23.250;2023-04-19T14:21:23;4.33;;;3.97;;
5297;SDS011;14738;42.668;23.250;2023-04-19T14:23:49;4.50;;;4.20;;
5297;SDS011;14738;42.668;23.250;2023-04-19T14:26:15;4.20;;;3.90;;
5297;SDS011;14738;42.668;23.250;2023-04-19T14:28:41;5.07;;;4.57;;
5297;SDS011;14738;42.668;23.250;2023-04-19T14:31:06;4.90;;;4.50;;
5297;SDS011;14738;42.668;23.250;2023-04-19T14:33:31;10.13;;;6.40;;
5297;SDS011;14738;42.668;23.250;2023-04-19T14:35:57;5.17;;;4.70;;
5297;SDS011;14738;42.668;23.250;2023-04-19T14:38:22;4.70;;;4.30;;
5297;SDS011;14738;42.668;23.250;2023-04-19T14:40:47;4.10;;;3.80;;
5297;SDS011;14738;42.668;23.250;2023-04-19T14:43:13;4.40;;;4.10;;
5297;SDS011;14738;42.668;23.250;2023-04-19T14:45:40;9.60;;;4.50;;
5297;SDS011;14738;42.668;23.250;2023-04-19T14:48:05;4.93;;;4.43;;
5297;SDS011;14738;42.668;23.250;2023-04-19T14:50:31;5.93;;;5.33;;
5297;SDS011;14738;42.668;23.250;2023-04-19T14:52:56;6.57;;;4.50;;